createdAt,value
2023-04-12T00:02:23.906Z,943.25
2023-04-12T00:04:50.401Z,943.22
2023-04-12T00:07:16.625Z,943.23
2023-04-12T00:09:43.051Z,943.13
2023-04-12T00:12:09.712Z,943.18
2023-04-12T00:14:37.361Z,943.07
2023-04-12T00:17:03.779Z,943.11
2023-04-12T00:19:30.274Z,943.08
2023-04-12T00:21:56.668Z,943.05
2023-04-12T00:24:23.036Z,943.10
2023-04-12T00:26:49.467Z,943.00
2023-04-12T00:29:15.883Z,943.03
2023-04-12T00:31:42.295Z,943.10
2023-04-12T00:34:08.723Z,943.02
2023-04-12T00:36:35.114Z,943.00
2023-04-12T00:39:03.890Z,942.98
2023-04-12T00:41:30.312Z,942.95
2023-04-12T00:43:57.061Z,943.06
2023-04-12T00:46:23.138Z,943.00
2023-04-12T00:48:49.518Z,942.99
2023-04-12T00:51:15.949Z,943.03
2023-04-12T00:53:42.349Z,942.92
2023-04-12T00:56:08.748Z,942.87
2023-04-12T00:58:35.091Z,942.90
2023-04-12T01:01:01.573Z,942.89
2023-04-12T01:03:28.200Z,942.87
2023-04-12T01:05:54.232Z,942.81
2023-04-12T01:08:20.604Z,942.89
2023-04-12T01:10:47.026Z,942.85
2023-04-12T01:13:13.420Z,942.88
2023-04-12T01:15:39.828Z,942.90
2023-04-12T01:18:06.292Z,942.84
2023-04-12T01:20:32.702Z,942.83
2023-04-12T01:22:59.109Z,942.85
2023-04-12T01:25:25.493Z,942.80
2023-04-12T01:27:51.909Z,942.83
2023-04-12T01:30:18.328Z,942.83
2023-04-12T01:32:44.765Z,942.77
2023-04-12T01:35:11.119Z,942.79
2023-04-12T01:37:37.510Z,942.78
2023-04-12T01:40:03.889Z,942.69
2023-04-12T01:42:30.287Z,942.78
2023-04-12T01:44:56.703Z,942.74
2023-04-12T01:47:23.152Z,942.77
2023-04-12T01:49:49.505Z,942.75
2023-04-12T01:52:15.922Z,942.71
2023-04-12T01:54:42.337Z,942.66
2023-04-12T01:57:08.803Z,942.68
2023-04-12T01:59:35.178Z,942.68
2023-04-12T02:02:01.621Z,942.59
2023-04-12T02:04:28.041Z,942.64
2023-04-12T02:06:56.833Z,942.56
2023-04-12T02:09:23.209Z,942.63
2023-04-12T02:11:49.676Z,942.60
2023-04-12T02:14:16.028Z,942.61
2023-04-12T02:16:43.570Z,942.55
2023-04-12T02:19:09.964Z,942.55
2023-04-12T02:21:36.372Z,942.58
2023-04-12T02:24:02.795Z,942.52
2023-04-12T02:26:29.147Z,942.60
2023-04-12T02:28:55.525Z,942.62
2023-04-12T02:31:21.955Z,942.59
2023-04-12T02:33:48.341Z,942.62
2023-04-12T02:36:14.771Z,942.59
2023-04-12T02:38:41.281Z,942.55
2023-04-12T02:41:07.659Z,942.57
2023-04-12T02:43:34.068Z,942.56
2023-04-12T02:46:00.498Z,942.54
2023-04-12T02:48:26.854Z,942.51
2023-04-12T02:50:53.272Z,942.48
2023-04-12T02:53:19.677Z,942.55
2023-04-12T02:55:46.073Z,942.52
2023-04-12T02:58:12.472Z,942.58
2023-04-12T03:00:38.840Z,942.57
2023-04-12T03:03:05.396Z,942.56
2023-04-12T03:05:31.623Z,942.61
2023-04-12T03:07:57.999Z,942.57
2023-04-12T03:10:24.389Z,942.51
2023-04-12T03:12:50.763Z,942.52
2023-04-12T03:15:17.129Z,942.56
2023-04-12T03:17:43.594Z,942.54
2023-04-12T03:20:10.121Z,942.55
2023-04-12T03:22:36.331Z,942.58
2023-04-12T03:25:02.805Z,942.59
2023-04-12T03:27:29.164Z,942.66
2023-04-12T03:29:55.524Z,942.60
2023-04-12T03:32:21.953Z,942.64
2023-04-12T03:34:48.360Z,942.65
2023-04-12T03:37:14.817Z,942.65
2023-04-12T03:39:41.181Z,942.67
2023-04-12T03:42:10.173Z,942.59
2023-04-12T03:44:34.178Z,942.71
2023-04-12T03:47:00.660Z,942.63
2023-04-12T03:49:27.006Z,942.69
2023-04-12T03:51:53.372Z,942.70
2023-04-12T03:54:19.788Z,942.74
2023-04-12T03:56:46.774Z,942.78
2023-04-12T03:59:13.125Z,942.73
2023-04-12T04:01:39.554Z,942.69
2023-04-12T04:04:05.967Z,942.68
2023-04-12T04:06:32.417Z,942.78
2023-04-12T04:08:58.775Z,942.64
2023-04-12T04:11:25.150Z,942.76
2023-04-12T04:13:51.553Z,942.68
2023-04-12T04:16:18.237Z,942.78
2023-04-12T04:18:44.552Z,942.94
2023-04-12T04:21:10.938Z,942.88
2023-04-12T04:23:37.312Z,943.03
2023-04-12T04:26:03.899Z,943.01
2023-04-12T04:28:30.304Z,943.09
2023-04-12T04:30:56.713Z,943.17
2023-04-12T04:33:23.186Z,943.11
2023-04-12T04:35:49.651Z,943.22
2023-04-12T04:38:16.296Z,943.26
2023-04-12T04:40:42.742Z,943.25
2023-04-12T04:43:09.157Z,943.11
2023-04-12T04:45:35.726Z,943.20
2023-04-12T04:48:02.099Z,943.35
2023-04-12T04:50:28.332Z,943.35
2023-04-12T04:52:54.735Z,943.33
2023-04-12T04:55:21.182Z,943.33
2023-04-12T04:57:47.666Z,943.31
2023-04-12T05:00:14.059Z,943.46
2023-04-12T05:02:40.618Z,943.43
2023-04-12T05:05:06.907Z,943.45
2023-04-12T05:07:33.483Z,943.46
2023-04-12T05:09:59.896Z,943.46
2023-04-12T05:12:26.274Z,943.52
2023-04-12T05:14:52.718Z,943.53
2023-04-12T05:17:19.129Z,943.54
2023-04-12T05:19:45.547Z,943.55
2023-04-12T05:22:11.912Z,943.60
2023-04-12T05:24:38.299Z,943.59
2023-04-12T05:27:04.700Z,943.62
2023-04-12T05:29:33.719Z,943.61
2023-04-12T05:32:00.104Z,943.61
2023-04-12T05:34:26.831Z,943.69
2023-04-12T05:36:53.242Z,943.64
2023-04-12T05:39:20.922Z,943.64
2023-04-12T05:41:47.216Z,943.66
2023-04-12T05:44:13.623Z,943.66
2023-04-12T05:46:40.065Z,943.69
2023-04-12T05:49:06.493Z,943.73
2023-04-12T05:51:40.918Z,943.75
2023-04-12T05:53:59.427Z,943.77
2023-04-12T05:56:25.816Z,943.77
2023-04-12T05:58:52.190Z,943.70
2023-04-12T06:01:18.646Z,943.69
2023-04-12T06:03:45.367Z,943.70
2023-04-12T06:06:11.652Z,943.67
2023-04-12T06:08:38.050Z,943.80
2023-04-12T06:11:04.519Z,943.84
2023-04-12T06:13:30.880Z,943.77
2023-04-12T06:15:57.608Z,943.90
2023-04-12T06:18:24.035Z,943.95
2023-04-12T06:20:50.464Z,944.05
2023-04-12T06:23:17.270Z,944.00
2023-04-12T06:25:46.078Z,944.13
2023-04-12T06:28:12.542Z,944.03
2023-04-12T06:30:38.918Z,944.02
2023-04-12T06:33:05.320Z,943.94
2023-04-12T06:35:31.733Z,943.96
2023-04-12T06:37:58.069Z,943.98
2023-04-12T06:40:24.440Z,944.05
2023-04-12T06:42:50.833Z,943.98
2023-04-12T06:45:19.392Z,943.92
2023-04-12T06:47:45.811Z,943.88
2023-04-12T06:50:12.216Z,943.87
2023-04-12T06:52:38.681Z,943.83
2023-04-12T06:55:05.079Z,943.73
2023-04-12T06:57:31.564Z,943.77
2023-04-12T06:59:57.994Z,943.77
2023-04-12T07:02:24.525Z,943.74
2023-04-12T07:04:50.828Z,943.70
2023-04-12T07:07:17.243Z,943.76
2023-04-12T07:09:43.605Z,943.73
2023-04-12T07:12:10.033Z,943.86
2023-04-12T07:14:36.395Z,943.61
2023-04-12T07:17:04.009Z,943.63
2023-04-12T07:19:29.202Z,943.71
2023-04-12T07:21:55.571Z,943.62
2023-04-12T07:24:21.927Z,943.61
2023-04-12T07:26:48.363Z,943.41
2023-04-12T07:29:14.894Z,943.38
2023-04-12T07:31:41.299Z,943.65
2023-04-12T07:34:07.909Z,943.49
2023-04-12T07:36:34.419Z,943.64
2023-04-12T07:39:00.864Z,943.64
2023-04-12T07:41:27.157Z,943.64
2023-04-12T07:43:53.558Z,943.69
2023-04-12T07:46:20.266Z,943.55
2023-04-12T07:48:46.593Z,943.47
2023-04-12T07:51:13.013Z,943.58
2023-04-12T07:53:39.478Z,943.58
2023-04-12T07:56:05.891Z,943.38
2023-04-12T07:58:32.253Z,943.37
2023-04-12T08:01:00.954Z,943.34
2023-04-12T08:03:25.117Z,943.34
2023-04-12T08:05:51.450Z,943.27
2023-04-12T08:08:17.797Z,943.33
2023-04-12T08:10:44.296Z,943.26
2023-04-12T08:13:10.671Z,943.19
2023-04-12T08:15:37.062Z,943.25
2023-04-12T08:18:03.509Z,943.28
2023-04-12T08:20:29.894Z,943.38
2023-04-12T08:22:56.271Z,943.30
2023-04-12T08:25:22.904Z,943.33
2023-04-12T08:27:49.342Z,943.23
2023-04-12T08:30:15.675Z,942.98
2023-04-12T08:32:42.074Z,943.24
2023-04-12T08:35:08.440Z,943.30
2023-04-12T08:37:34.864Z,943.37
2023-04-12T08:40:01.232Z,943.30
2023-04-12T08:42:27.625Z,943.27
2023-04-12T08:44:54.047Z,943.35
2023-04-12T08:47:20.491Z,943.28
2023-04-12T08:49:46.840Z,943.32
2023-04-12T08:52:13.500Z,943.38
2023-04-12T08:54:40.129Z,943.26
2023-04-12T08:57:06.554Z,943.30
2023-04-12T08:59:32.936Z,943.05
2023-04-12T09:01:59.445Z,943.11
2023-04-12T09:04:25.859Z,943.27
2023-04-12T09:06:52.110Z,943.05
2023-04-12T09:09:18.469Z,943.17
2023-04-12T09:11:45.208Z,943.08
2023-04-12T09:14:11.584Z,943.08
2023-04-12T09:16:38.028Z,943.13
2023-04-12T09:19:04.615Z,943.01
2023-04-12T09:21:31.025Z,943.05
2023-04-12T09:23:57.577Z,943.04
2023-04-12T09:26:24.028Z,942.95
2023-04-12T09:28:50.405Z,943.02
2023-04-12T09:31:16.841Z,942.97
2023-04-12T09:33:43.218Z,942.93
2023-04-12T09:36:09.659Z,942.94
2023-04-12T09:38:35.973Z,942.85
2023-04-12T09:41:02.345Z,942.82
2023-04-12T09:43:28.715Z,942.70
2023-04-12T09:45:55.204Z,942.75
2023-04-12T09:48:21.552Z,942.65
2023-04-12T09:50:47.925Z,942.74
2023-04-12T09:53:14.349Z,942.70
2023-04-12T09:55:40.734Z,942.64
2023-04-12T09:58:07.170Z,942.59
2023-04-12T10:00:34.591Z,942.37
2023-04-12T10:03:00.894Z,942.56
2023-04-12T10:05:27.918Z,942.23
2023-04-12T10:07:53.541Z,942.35
2023-04-12T10:10:20.101Z,942.49
2023-04-12T10:12:46.387Z,942.38
2023-04-12T10:15:12.801Z,942.37
2023-04-12T10:17:39.418Z,942.31
2023-04-12T10:20:05.806Z,942.35
2023-04-12T10:22:32.153Z,942.30
2023-04-12T10:24:58.584Z,942.24
2023-04-12T10:27:25.021Z,942.16
2023-04-12T10:29:51.413Z,942.21
2023-04-12T10:32:17.812Z,942.23
2023-04-12T10:34:44.204Z,942.27
2023-04-12T10:37:10.645Z,942.19
2023-04-12T10:39:37.046Z,942.29
2023-04-12T10:42:03.436Z,942.26
2023-04-12T10:44:29.857Z,942.09
2023-04-12T10:46:56.266Z,941.98
2023-04-12T10:49:22.649Z,942.07
2023-04-12T10:51:49.021Z,941.80
2023-04-12T10:54:15.442Z,941.94
2023-04-12T10:56:41.896Z,941.78
2023-04-12T10:59:08.294Z,941.84
2023-04-12T11:01:36.043Z,941.90
2023-04-12T11:04:01.256Z,941.91
2023-04-12T11:06:28.016Z,941.87
2023-04-12T11:08:53.851Z,941.79
2023-04-12T11:11:20.508Z,941.94
2023-04-12T11:13:46.924Z,941.80
2023-04-12T11:16:13.615Z,941.71
2023-04-12T11:18:40.087Z,941.83
2023-04-12T11:21:06.530Z,941.85
2023-04-12T11:23:32.938Z,941.80
2023-04-12T11:25:59.296Z,941.83
2023-04-12T11:28:29.779Z,941.51
2023-04-12T11:30:52.142Z,941.74
2023-04-12T11:33:18.519Z,941.82
2023-04-12T11:35:44.978Z,941.89
2023-04-12T11:38:11.397Z,941.76
2023-04-12T11:40:38.062Z,941.87
2023-04-12T11:43:04.482Z,941.65
2023-04-12T11:45:31.111Z,941.60
2023-04-12T11:47:57.501Z,941.71
2023-04-12T11:50:24.051Z,941.76
2023-04-12T11:52:50.470Z,941.81
2023-04-12T11:55:17.022Z,941.78
2023-04-12T11:57:43.439Z,941.81
2023-04-12T12:00:09.873Z,941.88
2023-04-12T12:02:41.139Z,941.66
2023-04-12T12:05:03.172Z,941.72
2023-04-12T12:07:29.765Z,941.71
2023-04-12T12:09:55.619Z,941.47
2023-04-12T12:12:22.055Z,941.70
2023-04-12T12:14:48.455Z,941.81
2023-04-12T12:17:15.241Z,941.72
2023-04-12T12:19:41.692Z,941.83
2023-04-12T12:22:08.071Z,941.79
2023-04-12T12:24:36.305Z,941.74
2023-04-12T12:27:01.146Z,941.64
2023-04-12T12:29:27.561Z,941.88
2023-04-12T12:31:54.017Z,941.84
2023-04-12T12:34:20.358Z,941.69
2023-04-12T12:36:47.038Z,941.71
2023-04-12T12:39:13.666Z,941.61
2023-04-12T12:41:40.121Z,941.67
2023-04-12T12:44:06.500Z,941.88
2023-04-12T12:46:48.728Z,941.94
2023-04-12T12:48:59.493Z,941.91
2023-04-12T12:51:25.921Z,941.81
2023-04-12T12:53:52.288Z,941.86
2023-04-12T12:56:18.728Z,941.84
2023-04-12T12:58:45.166Z,941.81
2023-04-12T13:01:11.551Z,941.90
2023-04-12T13:03:38.063Z,941.78
2023-04-12T13:06:04.393Z,941.78
2023-04-12T13:08:30.794Z,941.87
2023-04-12T13:10:57.211Z,941.81
2023-04-12T13:13:23.664Z,941.83
2023-04-12T13:15:50.061Z,941.79
2023-04-12T13:18:16.425Z,941.73
2023-04-12T13:20:44.053Z,941.72
2023-04-12T13:23:10.494Z,941.88
2023-04-12T13:25:36.902Z,941.83
2023-04-12T13:28:03.362Z,941.84
2023-04-12T13:30:29.791Z,941.92
2023-04-12T13:32:56.323Z,941.98
2023-04-12T13:35:22.656Z,942.02
2023-04-12T13:37:49.038Z,941.85
2023-04-12T13:40:15.435Z,941.96
2023-04-12T13:42:42.094Z,941.98
2023-04-12T13:45:08.464Z,941.89
2023-04-12T13:47:35.040Z,941.87
2023-04-12T13:50:01.481Z,941.84
2023-04-12T13:52:27.915Z,941.86
2023-04-12T13:54:54.329Z,942.00
2023-04-12T13:57:20.715Z,941.96
2023-04-12T13:59:47.147Z,941.96
2023-04-12T14:02:13.585Z,941.96
2023-04-12T14:04:40.007Z,941.98
2023-04-12T14:07:06.335Z,942.04
2023-04-12T14:09:32.732Z,942.03
2023-04-12T14:11:59.206Z,942.12
2023-04-12T14:14:25.595Z,942.00
2023-04-12T14:16:52.101Z,941.85
2023-04-12T14:19:18.368Z,941.97
2023-04-12T14:21:44.910Z,941.94
2023-04-12T14:24:13.683Z,942.00
2023-04-12T14:26:43.760Z,941.96
2023-04-12T14:29:10.658Z,942.04
2023-04-12T14:31:38.101Z,942.06
2023-04-12T14:34:04.461Z,942.03
2023-04-12T14:36:33.500Z,942.00
2023-04-12T14:38:59.852Z,942.02
2023-04-12T14:41:26.231Z,942.07
2023-04-12T14:43:52.604Z,942.22
2023-04-12T14:46:19.132Z,942.13
2023-04-12T14:48:45.392Z,942.16
2023-04-12T14:51:11.812Z,942.25
2023-04-12T14:53:38.245Z,942.29
2023-04-12T14:56:04.936Z,942.27
2023-04-12T14:58:31.356Z,942.31
2023-04-12T15:00:57.780Z,942.30
2023-04-12T15:03:25.754Z,942.29
2023-04-12T15:05:52.042Z,942.33
2023-04-12T15:08:18.461Z,942.38
2023-04-12T15:10:44.823Z,942.42
2023-04-12T15:13:11.308Z,942.45
2023-04-12T15:15:37.634Z,942.49
2023-04-12T15:18:04.034Z,942.48
2023-04-12T15:20:30.432Z,942.55
2023-04-12T15:22:56.847Z,942.60
2023-04-12T15:25:23.425Z,942.58
2023-04-12T15:27:49.806Z,942.67
2023-04-12T15:30:16.224Z,942.63
2023-04-12T15:32:43.634Z,942.64
2023-04-12T15:35:25.420Z,942.68
2023-04-12T15:37:36.449Z,942.61
2023-04-12T15:40:02.736Z,942.69
2023-04-12T15:42:29.170Z,942.68
2023-04-12T15:44:56.633Z,942.68
2023-04-12T15:47:23.078Z,942.74
2023-04-12T15:49:49.469Z,942.83
2023-04-12T15:52:15.871Z,942.77
2023-04-12T15:54:44.047Z,942.72
2023-04-12T15:57:08.737Z,942.82
2023-04-12T15:59:35.113Z,942.85
2023-04-12T16:02:01.635Z,942.79
2023-04-12T16:04:28.122Z,942.94
2023-04-12T16:06:54.411Z,942.89
2023-04-12T16:09:20.880Z,942.88
2023-04-12T16:11:47.239Z,942.87
2023-04-12T16:14:13.733Z,942.94
2023-04-12T16:16:40.437Z,942.89
2023-04-12T16:19:06.502Z,942.87
2023-04-12T16:21:33.313Z,942.86
2023-04-12T16:23:59.722Z,942.87
2023-04-12T16:26:28.299Z,942.89
2023-04-12T16:28:54.794Z,942.90
2023-04-12T16:31:21.324Z,942.99
2023-04-12T16:33:47.617Z,943.05
2023-04-12T16:36:14.253Z,943.06
2023-04-12T16:38:40.615Z,943.08
2023-04-12T16:41:06.996Z,943.15
2023-04-12T16:43:33.470Z,943.16
2023-04-12T16:45:59.886Z,943.12
2023-04-12T16:48:26.257Z,943.24
2023-04-12T16:50:52.661Z,943.23
2023-04-12T16:53:19.079Z,943.32
2023-04-12T16:55:45.511Z,943.30
2023-04-12T16:58:11.946Z,943.43
2023-04-12T17:00:38.499Z,943.49
2023-04-12T17:03:05.067Z,943.46
2023-04-12T17:05:31.380Z,943.54
2023-04-12T17:07:57.745Z,943.50
2023-04-12T17:10:24.690Z,943.57
2023-04-12T17:12:50.963Z,943.55
2023-04-12T17:15:17.463Z,943.60
2023-04-12T17:17:43.939Z,943.55
2023-04-12T17:20:10.296Z,943.65
2023-04-12T17:22:36.934Z,943.66
2023-04-12T17:25:03.323Z,943.76
2023-04-12T17:27:30.030Z,943.86
2023-04-12T17:29:56.457Z,943.89
2023-04-12T17:32:23.175Z,943.92
2023-04-12T17:34:49.545Z,943.93
2023-04-12T17:37:15.917Z,943.91
2023-04-12T17:39:42.337Z,943.90
2023-04-12T17:42:08.910Z,943.89
2023-04-12T17:44:35.382Z,943.95
2023-04-12T17:47:01.798Z,944.02
2023-04-12T17:49:28.211Z,943.96
2023-04-12T17:51:54.968Z,944.06
2023-04-12T17:54:21.736Z,944.05
2023-04-12T17:56:48.397Z,944.06
2023-04-12T17:59:14.778Z,944.07
2023-04-12T18:01:41.328Z,944.13
2023-04-12T18:04:07.940Z,944.14
2023-04-12T18:06:34.117Z,944.22
2023-04-12T18:09:00.496Z,944.32
2023-04-12T18:11:26.923Z,944.26
2023-04-12T18:13:53.296Z,944.29
2023-04-12T18:16:19.776Z,944.37
2023-04-12T18:18:46.189Z,944.32
2023-04-12T18:21:12.541Z,944.36
2023-04-12T18:23:38.963Z,944.44
2023-04-12T18:26:05.422Z,944.41
2023-04-12T18:28:31.992Z,944.49
2023-04-12T18:30:58.383Z,944.38
2023-04-12T18:33:27.876Z,944.39
2023-04-12T18:35:54.258Z,944.43
2023-04-12T18:38:20.870Z,944.43
2023-04-12T18:40:47.317Z,944.49
2023-04-12T18:43:13.838Z,944.47
2023-04-12T18:45:40.209Z,944.50
2023-04-12T18:48:06.718Z,944.45
2023-04-12T18:50:33.084Z,944.49
2023-04-12T18:52:59.497Z,944.43
2023-04-12T18:55:25.970Z,944.47
2023-04-12T18:57:52.417Z,944.54
2023-04-12T19:00:18.787Z,944.44
2023-04-12T19:02:45.297Z,944.49
2023-04-12T19:05:11.660Z,944.52
2023-04-12T19:07:38.056Z,944.57
2023-04-12T19:10:04.428Z,944.62
2023-04-12T19:12:30.834Z,944.63
2023-04-12T19:14:57.322Z,944.64
2023-04-12T19:17:23.791Z,944.62
2023-04-12T19:19:50.084Z,944.59
2023-04-12T19:22:16.535Z,944.67
2023-04-12T19:24:45.054Z,944.63
2023-04-12T19:27:11.439Z,944.71
2023-04-12T19:29:39.051Z,944.70
2023-04-12T19:32:06.094Z,944.69
2023-04-12T19:34:32.416Z,944.71
2023-04-12T19:36:58.850Z,944.70
2023-04-12T19:39:25.200Z,944.68
2023-04-12T19:41:51.686Z,944.64
2023-04-12T19:44:18.109Z,944.69
2023-04-12T19:46:44.447Z,944.69
2023-04-12T19:49:10.823Z,944.61
2023-04-12T19:51:37.289Z,944.63
2023-04-12T19:54:03.784Z,944.65
2023-04-12T19:56:30.148Z,944.64
2023-04-12T19:58:56.743Z,944.63
2023-04-12T20:01:23.052Z,944.67
2023-04-12T20:03:50.091Z,944.62
2023-04-12T20:06:16.458Z,944.55
2023-04-12T20:08:42.874Z,944.57
2023-04-12T20:11:09.293Z,944.62
2023-04-12T20:13:36.840Z,944.64
2023-04-12T20:16:03.219Z,944.61
2023-04-12T20:18:29.691Z,944.64
2023-04-12T20:20:58.239Z,944.59
2023-04-12T20:23:24.617Z,944.70
2023-04-12T20:25:50.991Z,944.58
2023-04-12T20:28:17.472Z,944.62
2023-04-12T20:30:46.300Z,944.59
2023-04-12T20:33:12.780Z,944.65
2023-04-12T20:35:39.089Z,944.64
2023-04-12T20:38:05.467Z,944.70
2023-04-12T20:40:31.883Z,944.63
2023-04-12T20:42:58.304Z,944.67
2023-04-12T20:45:24.702Z,944.67
2023-04-12T20:47:51.221Z,944.61
2023-04-12T20:50:17.538Z,944.63
2023-04-12T20:52:43.955Z,944.63
2023-04-12T20:55:10.853Z,944.69
2023-04-12T20:57:37.254Z,944.70
2023-04-12T21:00:03.618Z,944.71
2023-04-12T21:02:30.172Z,944.73
2023-04-12T21:04:58.165Z,944.72
2023-04-12T21:07:23.907Z,944.71
2023-04-12T21:09:50.281Z,944.75
2023-04-12T21:12:16.669Z,944.70
2023-04-12T21:14:43.046Z,944.73
2023-04-12T21:17:09.454Z,944.66
2023-04-12T21:19:35.833Z,944.65
2023-04-12T21:22:03.409Z,944.66
2023-04-12T21:24:31.133Z,944.67
2023-04-12T21:26:57.500Z,944.61
2023-04-12T21:29:23.870Z,944.63
2023-04-12T21:31:50.296Z,944.59
2023-04-12T21:34:16.633Z,944.60
2023-04-12T21:36:43.021Z,944.62
2023-04-12T21:39:09.388Z,944.52
2023-04-12T21:41:35.769Z,944.53
2023-04-12T21:44:02.147Z,944.55
2023-04-12T21:46:28.673Z,944.63
2023-04-12T21:48:54.948Z,944.69
2023-04-12T21:51:21.326Z,944.64
2023-04-12T21:53:47.702Z,944.56
2023-04-12T21:56:14.082Z,944.62
2023-04-12T21:58:40.488Z,944.61
2023-04-12T22:01:06.901Z,944.61
2023-04-12T22:03:35.694Z,944.73
2023-04-12T22:06:04.638Z,944.78
2023-04-12T22:08:28.437Z,944.76
2023-04-12T22:10:54.821Z,944.76
2023-04-12T22:13:21.224Z,944.68
2023-04-12T22:15:47.642Z,944.68
2023-04-12T22:18:14.002Z,944.68
2023-04-12T22:20:40.375Z,944.71
2023-04-12T22:23:06.770Z,944.66
2023-04-12T22:25:33.160Z,944.76
2023-04-12T22:27:59.544Z,944.72
2023-04-12T22:30:25.967Z,944.66
2023-04-12T22:32:52.351Z,944.67
2023-04-12T22:35:18.704Z,944.60
2023-04-12T22:37:45.079Z,944.60
2023-04-12T22:40:11.544Z,944.60
2023-04-12T22:42:38.109Z,944.52
2023-04-12T22:45:04.495Z,944.56
2023-04-12T22:47:30.878Z,944.59
2023-04-12T22:49:57.261Z,944.64
2023-04-12T22:52:23.621Z,944.63
2023-04-12T22:54:50.012Z,944.63
2023-04-12T22:57:17.227Z,944.63
2023-04-12T22:59:43.810Z,944.67
2023-04-12T23:02:10.271Z,944.66
2023-04-12T23:04:36.606Z,944.63
2023-04-12T23:07:03.016Z,944.65
2023-04-12T23:09:29.433Z,944.61
2023-04-12T23:11:55.817Z,944.63
2023-04-12T23:14:22.383Z,944.66
2023-04-12T23:16:48.726Z,944.69
2023-04-12T23:19:15.251Z,944.69
2023-04-12T23:21:41.690Z,944.64
2023-04-12T23:24:08.138Z,944.71
2023-04-12T23:26:34.564Z,944.75
2023-04-12T23:29:00.899Z,944.82
2023-04-12T23:31:27.382Z,944.80
2023-04-12T23:33:53.764Z,944.78
2023-04-12T23:36:20.130Z,944.71
2023-04-12T23:38:46.604Z,944.67
2023-04-12T23:41:13.005Z,944.64
2023-04-12T23:43:39.373Z,944.66
2023-04-12T23:46:05.842Z,944.70
2023-04-12T23:48:36.842Z,944.64
2023-04-12T23:51:03.269Z,944.61
2023-04-12T23:53:29.806Z,944.62
2023-04-12T23:55:56.201Z,944.65
2023-04-12T23:58:22.563Z,944.69
